TimeEST,TemperatureF,Dew PointF,Humidity,Sea Level PressureIn,VisibilityMPH,Wind Direction,Wind SpeedMPH,Gust SpeedMPH,PrecipitationIn,Events,Conditions,WindDirDegrees,DateUTC
9:35 AM,13.5,0.5,56,-9999,7.0,WNW,19.6,34.5,N/A,,Clear,300,2013-02-01 14:35:00
9:55 AM,14.0,-0.2,53,-9999,10.0,WNW,18.4,29.9,N/A,,Clear,290,2013-02-01 14:55:00
10:15 AM,13.8,-1.7,50,-9999,5.0,WNW,27.6,43.7,N/A,,Haze,290,2013-02-01 15:15:00
10:35 AM,14.0,-2.2,49,-9999,7.0,WNW,20.7,35.7,N/A,,Clear,300,2013-02-01 15:35:00
10:55 AM,14.2,-2.7,47,-9999,10.0,WNW,18.4,34.5,N/A,,Clear,290,2013-02-01 15:55:00
11:15 AM,15.1,-2.2,46,-9999,10.0,WNW,18.4,27.6,N/A,,Clear,290,2013-02-01 16:15:00
11:35 AM,16.0,-2.2,45,-9999,7.0,WNW,13.8,33.4,N/A,,Clear,290,2013-02-01 16:35:00
12:15 PM,17.2,-3.1,41,-9999,10.0,WNW,18.4,25.3,N/A,,Clear,290,2013-02-01 17:15:00
12:35 PM,18.0,-2.2,41,-9999,10.0,WNW,9.2,24.2,N/A,,Clear,300,2013-02-01 17:35:00
12:55 PM,18.5,-1.7,41,-9999,10.0,NW,18.4,26.5,N/A,,Clear,310,2013-02-01 17:55:00
1:15 PM,19.4,-0.4,42,-9999,10.0,NW,12.7,25.3,N/A,,Clear,310,2013-02-01 18:15:00
1:35 PM,20.3,-0.0,41,-9999,10.0,NW,12.7,19.6,N/A,,Clear,310,2013-02-01 18:35:00
1:55 PM,19.9,-0.8,40,-9999,10.0,WNW,13.8,27.6,N/A,,Clear,300,2013-02-01 18:55:00
2:15 PM,20.8,-0.4,40,-9999,10.0,WNW,12.7,19.6,N/A,,Clear,300,2013-02-01 19:15:00
2:35 PM,20.7,-0.4,40,-9999,10.0,NW,12.7,21.9,N/A,,Clear,310,2013-02-01 19:35:00
2:55 PM,21.0,0.1,40,-9999,10.0,WNW,9.2,18.4,N/A,,Clear,290,2013-02-01 19:55:00
3:15 PM,21.2,-0.0,40,-9999,10.0,WNW,13.8,24.2,N/A,,Clear,290,2013-02-01 20:15:00
3:35 PM,21.0,-0.9,38,-9999,10.0,NW,9.2,20.7,N/A,,Clear,310,2013-02-01 20:35:00
3:55 PM,20.7,-1.8,37,-9999,10.0,NW,10.4,24.2,N/A,,Clear,320,2013-02-01 20:55:00
4:15 PM,21.0,0.9,42,-9999,10.0,NW,3.5,-,N/A,,Clear,310,2013-02-01 21:15:00
4:35 PM,20.5,0.7,42,-9999,10.0,WNW,16.1,23.0,N/A,,Clear,290,2013-02-01 21:35:00
4:55 PM,20.3,0.5,42,-9999,10.0,WNW,4.6,-,N/A,,Clear,290,2013-02-01 21:55:00
5:15 PM,19.9,1.6,45,-9999,10.0,WNW,9.2,-,N/A,,Clear,290,2013-02-01 22:15:00
5:35 PM,18.5,2.3,49,-9999,10.0,WNW,3.5,-,N/A,,Clear,290,2013-02-01 22:35:00
5:55 PM,18.5,2.3,49,-9999,10.0,WNW,6.9,-,N/A,,Clear,300,2013-02-01 22:55:00
6:15 PM,17.6,1.6,50,-9999,10.0,Calm,Calm,-,N/A,,Clear,0,2013-02-01 23:15:00
6:55 PM,17.2,1.9,51,-9999,10.0,NW,5.8,19.6,N/A,,Clear,310,2013-02-01 23:55:00
7:15 PM,16.7,2.1,53,-9999,10.0,WSW,5.8,-,N/A,,Clear,250,2013-02-02 00:15:00
7:35 PM,16.7,2.3,53,-9999,10.0,West,4.6,-,N/A,,Clear,280,2013-02-02 00:35:00
7:55 PM,16.5,2.7,55,-9999,10.0,West,8.1,-,N/A,,Clear,280,2013-02-02 00:55:00
8:15 PM,16.5,3.0,55,-9999,10.0,WNW,8.1,16.1,N/A,,Clear,290,2013-02-02 01:15:00
8:35 PM,16.3,3.7,58,-9999,10.0,West,6.9,18.4,N/A,,Clear,280,2013-02-02 01:35:00
8:55 PM,16.3,4.3,59,-9999,10.0,West,8.1,24.2,N/A,,Clear,280,2013-02-02 01:55:00
9:35 PM,16.0,3.9,59,-9999,10.0,West,6.9,-,N/A,,Clear,270,2013-02-02 02:35:00
9:55 PM,16.0,3.6,58,-9999,10.0,West,8.1,-,N/A,,Clear,270,2013-02-02 02:55:00
10:15 PM,16.2,3.0,56,-9999,10.0,WNW,4.6,18.4,N/A,,Clear,300,2013-02-02 03:15:00
10:35 PM,16.3,3.0,56,-9999,10.0,NNW,6.9,-,N/A,,Clear,330,2013-02-02 03:35:00
10:55 PM,16.3,2.7,55,-9999,10.0,West,10.4,16.1,N/A,,Clear,270,2013-02-02 03:55:00
11:15 PM,16.5,2.5,54,-9999,10.0,West,9.2,-,N/A,,Clear,280,2013-02-02 04:15:00
11:35 PM,16.7,2.7,54,-9999,10.0,WNW,12.7,19.6,N/A,,Clear,300,2013-02-02 04:35:00
11:55 PM,16.7,3.0,55,-9999,10.0,WNW,10.4,-,N/A,,Clear,300,2013-02-02 04:55:00